sensor_id;sensor_type;location;lat;lon;timestamp;temperature;humidity
612;DHT22;293;53.888;11.464;2023-04-24T00:00:42;13.50;99.90
612;DHT22;293;53.888;11.464;2023-04-24T00:03:10;13.40;99.90
612;DHT22;293;53.888;11.464;2023-04-24T00:05:38;13.40;99.90
612;DHT22;293;53.888;11.464;2023-04-24T00:08:05;13.50;99.90
612;DHT22;293;53.888;11.464;2023-04-24T00:10:32;13.40;99.90
612;DHT22;293;53.888;11.464;2023-04-24T00:12:59;13.50;99.90
612;DHT22;293;53.888;11.464;2023-04-24T00:15:26;13.40;99.90
612;DHT22;293;53.888;11.464;2023-04-24T00:17:54;13.40;99.90
612;DHT22;293;53.888;11.464;2023-04-24T00:20:21;13.50;99.90
612;DHT22;293;53.888;11.464;2023-04-24T00:22:48;13.40;99.90
612;DHT22;293;53.888;11.464;2023-04-24T00:25:15;13.40;99.90
612;DHT22;293;53.888;11.464;2023-04-24T00:27:42;13.40;99.90
612;DHT22;293;53.888;11.464;2023-04-24T00:30:09;13.40;99.90
612;DHT22;293;53.888;11.464;2023-04-24T00:32:36;13.40;99.90
612;DHT22;293;53.888;11.464;2023-04-24T00:35:06;13.40;99.90
612;DHT22;293;53.888;11.464;2023-04-24T00:37:33;13.50;99.90
612;DHT22;293;53.888;11.464;2023-04-24T00:40:00;13.40;99.90
612;DHT22;293;53.888;11.464;2023-04-24T00:42:27;13.40;99.90
612;DHT22;293;53.888;11.464;2023-04-24T00:44:54;13.40;99.90
612;DHT22;293;53.888;11.464;2023-04-24T00:47:22;13.40;99.90
612;DHT22;293;53.888;11.464;2023-04-24T00:49:49;13.40;99.90
612;DHT22;293;53.888;11.464;2023-04-24T00:52:17;13.40;99.90
612;DHT22;293;53.888;11.464;2023-04-24T00:54:44;13.40;99.90
612;DHT22;293;53.888;11.464;2023-04-24T00:57:13;13.50;99.90
612;DHT22;293;53.888;11.464;2023-04-24T00:59:40;13.50;99.90
612;DHT22;293;53.888;11.464;2023-04-24T01:02:08;13.40;99.90
612;DHT22;293;53.888;11.464;2023-04-24T01:04:36;13.40;99.90
612;DHT22;293;53.888;11.464;2023-04-24T01:07:04;13.40;99.90
612;DHT22;293;53.888;11.464;2023-04-24T01:09:37;13.50;99.90
612;DHT22;293;53.888;11.464;2023-04-24T01:12:04;13.50;99.90
612;DHT22;293;53.888;11.464;2023-04-24T01:14:31;13.50;99.90
612;DHT22;293;53.888;11.464;2023-04-24T01:16:58;13.40;99.90
612;DHT22;293;53.888;11.464;2023-04-24T01:19:26;13.40;99.90
612;DHT22;293;53.888;11.464;2023-04-24T01:21:53;13.40;99.90
612;DHT22;293;53.888;11.464;2023-04-24T01:24:25;13.40;99.90
612;DHT22;293;53.888;11.464;2023-04-24T01:26:52;13.50;99.90
612;DHT22;293;53.888;11.464;2023-04-24T01:29:19;13.40;99.90
612;DHT22;293;53.888;11.464;2023-04-24T01:31:46;13.40;99.90
612;DHT22;293;53.888;11.464;2023-04-24T01:34:13;13.40;99.90
612;DHT22;293;53.888;11.464;2023-04-24T01:36:41;13.40;99.90
612;DHT22;293;53.888;11.464;2023-04-24T01:39:09;13.40;99.90
612;DHT22;293;53.888;11.464;2023-04-24T01:41:37;13.50;99.90
612;DHT22;293;53.888;11.464;2023-04-24T01:44:04;13.50;99.90
612;DHT22;293;53.888;11.464;2023-04-24T01:46:31;13.50;99.90
612;DHT22;293;53.888;11.464;2023-04-24T01:49:00;13.60;99.90
612;DHT22;293;53.888;11.464;2023-04-24T01:51:27;13.60;99.90
612;DHT22;293;53.888;11.464;2023-04-24T01:53:54;13.80;99.90
612;DHT22;293;53.888;11.464;2023-04-24T01:56:22;13.60;99.90
612;DHT22;293;53.888;11.464;2023-04-24T01:58:52;13.70;99.90
612;DHT22;293;53.888;11.464;2023-04-24T02:01:20;13.70;99.90
612;DHT22;293;53.888;11.464;2023-04-24T02:03:47;13.70;99.90
612;DHT22;293;53.888;11.464;2023-04-24T02:06:14;13.70;99.90
612;DHT22;293;53.888;11.464;2023-04-24T02:08:41;13.70;99.90
612;DHT22;293;53.888;11.464;2023-04-24T02:11:08;13.70;99.90
612;DHT22;293;53.888;11.464;2023-04-24T02:13:35;13.70;99.90
612;DHT22;293;53.888;11.464;2023-04-24T02:16:04;13.60;99.90
612;DHT22;293;53.888;11.464;2023-04-24T02:18:31;13.50;99.90
612;DHT22;293;53.888;11.464;2023-04-24T02:20:57;13.40;99.90
612;DHT22;293;53.888;11.464;2023-04-24T02:23:24;13.30;99.90
612;DHT22;293;53.888;11.464;2023-04-24T02:25:52;13.30;99.90
612;DHT22;293;53.888;11.464;2023-04-24T02:28:19;13.20;99.90
612;DHT22;293;53.888;11.464;2023-04-24T02:30:46;13.20;99.90
612;DHT22;293;53.888;11.464;2023-04-24T02:33:15;13.20;99.90
612;DHT22;293;53.888;11.464;2023-04-24T02:35:41;13.20;99.90
612;DHT22;293;53.888;11.464;2023-04-24T02:38:08;13.20;99.90
612;DHT22;293;53.888;11.464;2023-04-24T02:40:35;13.10;99.90
612;DHT22;293;53.888;11.464;2023-04-24T02:43:02;13.10;99.90
612;DHT22;293;53.888;11.464;2023-04-24T02:45:29;13.10;99.90
612;DHT22;293;53.888;11.464;2023-04-24T02:47:56;13.10;99.90
612;DHT22;293;53.888;11.464;2023-04-24T02:50:24;12.90;99.90
612;DHT22;293;53.888;11.464;2023-04-24T02:52:51;13.00;99.90
612;DHT22;293;53.888;11.464;2023-04-24T02:55:18;12.80;99.90
612;DHT22;293;53.888;11.464;2023-04-24T02:57:44;12.80;99.90
612;DHT22;293;53.888;11.464;2023-04-24T03:00:12;12.80;99.90
612;DHT22;293;53.888;11.464;2023-04-24T03:02:39;12.80;99.90
612;DHT22;293;53.888;11.464;2023-04-24T03:05:07;12.70;99.90
612;DHT22;293;53.888;11.464;2023-04-24T03:07:35;12.70;99.90
612;DHT22;293;53.888;11.464;2023-04-24T03:10:03;12.60;99.90
612;DHT22;293;53.888;11.464;2023-04-24T03:12:30;12.60;99.90
612;DHT22;293;53.888;11.464;2023-04-24T03:14:57;12.60;99.90
612;DHT22;293;53.888;11.464;2023-04-24T03:17:24;12.60;99.90
612;DHT22;293;53.888;11.464;2023-04-24T03:19:51;12.50;99.90
612;DHT22;293;53.888;11.464;2023-04-24T03:22:17;12.40;99.90
612;DHT22;293;53.888;11.464;2023-04-24T03:24:46;12.40;99.90
612;DHT22;293;53.888;11.464;2023-04-24T03:27:13;12.30;99.90
612;DHT22;293;53.888;11.464;2023-04-24T03:29:39;12.30;99.90
612;DHT22;293;53.888;11.464;2023-04-24T03:32:06;12.20;99.90
612;DHT22;293;53.888;11.464;2023-04-24T03:34:33;12.20;99.90
612;DHT22;293;53.888;11.464;2023-04-24T03:37:00;12.30;99.90
612;DHT22;293;53.888;11.464;2023-04-24T03:39:27;12.10;99.90
612;DHT22;293;53.888;11.464;2023-04-24T03:41:55;12.10;99.90
612;DHT22;293;53.888;11.464;2023-04-24T03:44:22;12.10;99.90
612;DHT22;293;53.888;11.464;2023-04-24T03:46:49;12.10;99.90
612;DHT22;293;53.888;11.464;2023-04-24T03:49:16;12.00;99.90
612;DHT22;293;53.888;11.464;2023-04-24T03:51:43;12.00;99.90
612;DHT22;293;53.888;11.464;2023-04-24T03:54:09;12.10;99.90
612;DHT22;293;53.888;11.464;2023-04-24T03:56:36;12.00;99.90
612;DHT22;293;53.888;11.464;2023-04-24T03:59:04;12.10;99.90
612;DHT22;293;53.888;11.464;2023-04-24T04:01:31;11.90;99.90
612;DHT22;293;53.888;11.464;2023-04-24T04:04:02;13.90;99.90
612;DHT22;293;53.888;11.464;2023-04-24T04:06:29;11.90;99.90
612;DHT22;293;53.888;11.464;2023-04-24T04:08:56;11.90;99.90
612;DHT22;293;53.888;11.464;2023-04-24T04:11:23;11.90;99.90
612;DHT22;293;53.888;11.464;2023-04-24T04:13:50;11.90;99.90
612;DHT22;293;53.888;11.464;2023-04-24T04:16:18;11.90;99.90
612;DHT22;293;53.888;11.464;2023-04-24T04:18:46;12.00;99.90
612;DHT22;293;53.888;11.464;2023-04-24T04:21:13;12.00;99.90
612;DHT22;293;53.888;11.464;2023-04-24T04:23:39;11.90;99.90
612;DHT22;293;53.888;11.464;2023-04-24T04:26:07;12.10;99.90
612;DHT22;293;53.888;11.464;2023-04-24T04:28:34;12.00;99.90
612;DHT22;293;53.888;11.464;2023-04-24T04:31:01;10.10;99.90
612;DHT22;293;53.888;11.464;2023-04-24T04:33:29;12.10;99.90
612;DHT22;293;53.888;11.464;2023-04-24T04:35:57;12.10;99.90
612;DHT22;293;53.888;11.464;2023-04-24T04:38:24;12.10;99.90
612;DHT22;293;53.888;11.464;2023-04-24T04:40:52;12.10;99.90
612;DHT22;293;53.888;11.464;2023-04-24T04:43:19;12.20;99.90
612;DHT22;293;53.888;11.464;2023-04-24T04:45:46;12.30;99.90
612;DHT22;293;53.888;11.464;2023-04-24T04:48:13;12.40;99.90
612;DHT22;293;53.888;11.464;2023-04-24T04:50:44;12.40;99.90
612;DHT22;293;53.888;11.464;2023-04-24T04:53:11;12.90;99.90
612;DHT22;293;53.888;11.464;2023-04-24T04:55:38;12.80;99.90
612;DHT22;293;53.888;11.464;2023-04-24T04:58:05;13.20;99.90
612;DHT22;293;53.888;11.464;2023-04-24T05:00:31;14.20;99.90
612;DHT22;293;53.888;11.464;2023-04-24T05:03:01;15.30;99.90
612;DHT22;293;53.888;11.464;2023-04-24T05:05:28;16.40;99.90
612;DHT22;293;53.888;11.464;2023-04-24T05:07:56;16.80;99.90
612;DHT22;293;53.888;11.464;2023-04-24T05:10:23;17.00;99.90
612;DHT22;293;53.888;11.464;2023-04-24T05:12:50;17.10;99.90
612;DHT22;293;53.888;11.464;2023-04-24T05:15:17;17.30;99.90
612;DHT22;293;53.888;11.464;2023-04-24T05:17:44;19.80;99.90
612;DHT22;293;53.888;11.464;2023-04-24T05:20:11;19.80;99.90
612;DHT22;293;53.888;11.464;2023-04-24T05:22:38;21.60;99.90
612;DHT22;293;53.888;11.464;2023-04-24T05:25:07;23.30;94.10
612;DHT22;293;53.888;11.464;2023-04-24T05:27:34;23.30;94.20
612;DHT22;293;53.888;11.464;2023-04-24T05:30:01;22.70;92.50
612;DHT22;293;53.888;11.464;2023-04-24T05:32:28;22.40;93.00
612;DHT22;293;53.888;11.464;2023-04-24T05:34:55;22.80;92.80
612;DHT22;293;53.888;11.464;2023-04-24T05:37:22;24.50;91.00
612;DHT22;293;53.888;11.464;2023-04-24T05:39:49;24.50;91.00
612;DHT22;293;53.888;11.464;2023-04-24T05:42:17;26.30;85.80
612;DHT22;293;53.888;11.464;2023-04-24T05:44:44;26.30;86.40
612;DHT22;293;53.888;11.464;2023-04-24T05:47:11;26.50;83.90
612;DHT22;293;53.888;11.464;2023-04-24T05:49:38;27.00;79.70
612;DHT22;293;53.888;11.464;2023-04-24T05:52:04;27.00;80.60
612;DHT22;293;53.888;11.464;2023-04-24T05:54:34;27.20;79.80
612;DHT22;293;53.888;11.464;2023-04-24T05:57:01;27.30;78.60
612;DHT22;293;53.888;11.464;2023-04-24T05:59:36;27.20;77.40
612;DHT22;293;53.888;11.464;2023-04-24T06:02:03;26.30;77.10
612;DHT22;293;53.888;11.464;2023-04-24T06:04:30;25.70;78.50
612;DHT22;293;53.888;11.464;2023-04-24T06:06:56;25.20;78.80
612;DHT22;293;53.888;11.464;2023-04-24T06:09:23;24.00;79.80
612;DHT22;293;53.888;11.464;2023-04-24T06:11:51;23.90;80.60
612;DHT22;293;53.888;11.464;2023-04-24T06:14:18;23.10;82.10
612;DHT22;293;53.888;11.464;2023-04-24T06:16:47;22.30;83.20
612;DHT22;293;53.888;11.464;2023-04-24T06:19:14;21.00;85.70
612;DHT22;293;53.888;11.464;2023-04-24T06:21:40;20.90;86.30
612;DHT22;293;53.888;11.464;2023-04-24T06:24:07;19.90;89.20
612;DHT22;293;53.888;11.464;2023-04-24T06:26:34;19.50;90.30
612;DHT22;293;53.888;11.464;2023-04-24T06:29:01;19.40;90.50
612;DHT22;293;53.888;11.464;2023-04-24T06:31:28;19.00;91.40
612;DHT22;293;53.888;11.464;2023-04-24T06:33:57;18.60;92.00
612;DHT22;293;53.888;11.464;2023-04-24T06:36:23;18.20;92.60
612;DHT22;293;53.888;11.464;2023-04-24T06:38:50;17.90;93.20
612;DHT22;293;53.888;11.464;2023-04-24T06:41:17;17.60;93.80
612;DHT22;293;53.888;11.464;2023-04-24T06:43:44;17.40;94.40
612;DHT22;293;53.888;11.464;2023-04-24T06:46:11;17.30;95.20
612;DHT22;293;53.888;11.464;2023-04-24T06:48:38;17.20;95.60
612;DHT22;293;53.888;11.464;2023-04-24T06:51:06;17.10;96.10
612;DHT22;293;53.888;11.464;2023-04-24T06:53:33;17.00;96.30
612;DHT22;293;53.888;11.464;2023-04-24T06:56:00;17.00;96.10
612;DHT22;293;53.888;11.464;2023-04-24T06:58:27;16.90;96.90
612;DHT22;293;53.888;11.464;2023-04-24T07:00:54;16.80;97.40
612;DHT22;293;53.888;11.464;2023-04-24T07:03:21;16.70;97.40
612;DHT22;293;53.888;11.464;2023-04-24T07:05:48;16.60;97.80
612;DHT22;293;53.888;11.464;2023-04-24T07:08:16;16.50;98.00
612;DHT22;293;53.888;11.464;2023-04-24T07:10:44;16.50;98.00
612;DHT22;293;53.888;11.464;2023-04-24T07:13:11;16.50;97.90
612;DHT22;293;53.888;11.464;2023-04-24T07:15:38;16.40;98.10
612;DHT22;293;53.888;11.464;2023-04-24T07:18:06;16.40;98.20
612;DHT22;293;53.888;11.464;2023-04-24T07:20:33;16.30;97.90
612;DHT22;293;53.888;11.464;2023-04-24T07:23:00;16.40;98.10
612;DHT22;293;53.888;11.464;2023-04-24T07:25:28;16.30;98.00
612;DHT22;293;53.888;11.464;2023-04-24T07:27:55;16.30;98.30
612;DHT22;293;53.888;11.464;2023-04-24T07:30:22;16.40;98.20
612;DHT22;293;53.888;11.464;2023-04-24T07:32:49;16.40;98.50
612;DHT22;293;53.888;11.464;2023-04-24T07:35:16;16.40;98.20
612;DHT22;293;53.888;11.464;2023-04-24T07:37:43;16.40;98.30
612;DHT22;293;53.888;11.464;2023-04-24T07:40:11;16.40;98.10
612;DHT22;293;53.888;11.464;2023-04-24T07:42:40;16.30;98.00
612;DHT22;293;53.888;11.464;2023-04-24T07:45:07;16.30;98.10
612;DHT22;293;53.888;11.464;2023-04-24T07:47:34;16.30;97.80
612;DHT22;293;53.888;11.464;2023-04-24T07:50:02;16.30;97.80
612;DHT22;293;53.888;11.464;2023-04-24T07:52:29;16.20;98.10
612;DHT22;293;53.888;11.464;2023-04-24T07:54:55;16.20;97.70
612;DHT22;293;53.888;11.464;2023-04-24T07:57:25;16.30;97.10
612;DHT22;293;53.888;11.464;2023-04-24T07:59:54;16.30;97.40
612;DHT22;293;53.888;11.464;2023-04-24T08:02:21;16.20;97.50
612;DHT22;293;53.888;11.464;2023-04-24T08:04:51;16.20;97.40
612;DHT22;293;53.888;11.464;2023-04-24T08:07:19;16.20;97.60
612;DHT22;293;53.888;11.464;2023-04-24T08:09:46;16.30;97.10
612;DHT22;293;53.888;11.464;2023-04-24T08:12:13;16.30;97.10
612;DHT22;293;53.888;11.464;2023-04-24T08:14:40;16.30;97.30
612;DHT22;293;53.888;11.464;2023-04-24T08:17:08;16.30;96.60
612;DHT22;293;53.888;11.464;2023-04-24T08:19:35;16.30;96.50
612;DHT22;293;53.888;11.464;2023-04-24T08:22:02;16.30;96.40
612;DHT22;293;53.888;11.464;2023-04-24T08:24:29;16.30;96.70
612;DHT22;293;53.888;11.464;2023-04-24T08:26:56;16.40;95.60
612;DHT22;293;53.888;11.464;2023-04-24T08:29:23;16.40;94.90
612;DHT22;293;53.888;11.464;2023-04-24T08:31:50;16.40;94.90
612;DHT22;293;53.888;11.464;2023-04-24T08:34:21;16.30;94.80
612;DHT22;293;53.888;11.464;2023-04-24T08:36:48;16.30;95.00
612;DHT22;293;53.888;11.464;2023-04-24T08:39:15;16.40;94.80
612;DHT22;293;53.888;11.464;2023-04-24T08:41:44;16.40;95.00
612;DHT22;293;53.888;11.464;2023-04-24T08:44:12;16.50;94.70
612;DHT22;293;53.888;11.464;2023-04-24T08:46:42;16.60;94.50
612;DHT22;293;53.888;11.464;2023-04-24T08:49:09;16.60;94.30
612;DHT22;293;53.888;11.464;2023-04-24T08:51:39;16.70;93.90
612;DHT22;293;53.888;11.464;2023-04-24T08:54:06;16.70;94.10
612;DHT22;293;53.888;11.464;2023-04-24T08:56:34;16.70;93.40
612;DHT22;293;53.888;11.464;2023-04-24T08:59:05;16.70;93.50
612;DHT22;293;53.888;11.464;2023-04-24T09:01:32;16.70;93.00
612;DHT22;293;53.888;11.464;2023-04-24T09:04:01;16.90;93.40
612;DHT22;293;53.888;11.464;2023-04-24T09:06:28;17.00;93.70
612;DHT22;293;53.888;11.464;2023-04-24T09:08:59;17.10;93.70
612;DHT22;293;53.888;11.464;2023-04-24T09:11:27;17.20;93.60
612;DHT22;293;53.888;11.464;2023-04-24T09:13:54;17.20;93.20
612;DHT22;293;53.888;11.464;2023-04-24T09:16:22;17.20;93.20
612;DHT22;293;53.888;11.464;2023-04-24T09:18:49;17.20;92.70
612;DHT22;293;53.888;11.464;2023-04-24T09:21:16;17.20;92.60
612;DHT22;293;53.888;11.464;2023-04-24T09:23:43;17.20;92.60
612;DHT22;293;53.888;11.464;2023-04-24T09:26:12;17.20;93.30
612;DHT22;293;53.888;11.464;2023-04-24T09:28:40;17.20;93.40
612;DHT22;293;53.888;11.464;2023-04-24T09:31:09;17.30;93.10
612;DHT22;293;53.888;11.464;2023-04-24T09:33:36;17.40;93.00
612;DHT22;293;53.888;11.464;2023-04-24T09:36:04;17.40;92.80
612;DHT22;293;53.888;11.464;2023-04-24T09:38:33;17.40;92.60
612;DHT22;293;53.888;11.464;2023-04-24T09:41:01;17.40;93.10
612;DHT22;293;53.888;11.464;2023-04-24T09:43:30;17.50;92.70
612;DHT22;293;53.888;11.464;2023-04-24T09:45:58;17.40;92.70
612;DHT22;293;53.888;11.464;2023-04-24T09:48:33;17.40;92.80
612;DHT22;293;53.888;11.464;2023-04-24T09:51:01;17.40;93.00
612;DHT22;293;53.888;11.464;2023-04-24T09:53:29;17.60;92.20
612;DHT22;293;53.888;11.464;2023-04-24T09:56:00;17.60;92.40
612;DHT22;293;53.888;11.464;2023-04-24T09:58:30;17.90;92.50
612;DHT22;293;53.888;11.464;2023-04-24T10:00:57;18.10;92.10
612;DHT22;293;53.888;11.464;2023-04-24T10:03:25;18.20;92.10
612;DHT22;293;53.888;11.464;2023-04-24T10:05:53;18.40;92.10
612;DHT22;293;53.888;11.464;2023-04-24T10:08:21;18.60;91.60
612;DHT22;293;53.888;11.464;2023-04-24T10:10:48;18.70;91.70
612;DHT22;293;53.888;11.464;2023-04-24T10:13:15;18.80;91.40
612;DHT22;293;53.888;11.464;2023-04-24T10:15:44;18.80;91.10
612;DHT22;293;53.888;11.464;2023-04-24T10:18:11;18.80;90.70
612;DHT22;293;53.888;11.464;2023-04-24T10:20:39;18.80;90.40
612;DHT22;293;53.888;11.464;2023-04-24T10:23:06;18.80;90.60
612;DHT22;293;53.888;11.464;2023-04-24T10:25:34;19.10;90.30
612;DHT22;293;53.888;11.464;2023-04-24T10:28:02;19.10;90.60
612;DHT22;293;53.888;11.464;2023-04-24T10:30:31;19.30;90.00
612;DHT22;293;53.888;11.464;2023-04-24T10:33:02;19.30;89.00
612;DHT22;293;53.888;11.464;2023-04-24T10:35:31;19.20;88.60
612;DHT22;293;53.888;11.464;2023-04-24T10:38:01;19.00;88.40
612;DHT22;293;53.888;11.464;2023-04-24T10:40:32;19.10;89.20
612;DHT22;293;53.888;11.464;2023-04-24T10:43:01;19.20;90.20
612;DHT22;293;53.888;11.464;2023-04-24T10:45:28;19.30;89.80
612;DHT22;293;53.888;11.464;2023-04-24T10:47:59;19.30;89.40
612;DHT22;293;53.888;11.464;2023-04-24T10:50:29;19.40;90.00
612;DHT22;293;53.888;11.464;2023-04-24T10:53:06;19.40;89.20
612;DHT22;293;53.888;11.464;2023-04-24T10:55:42;19.50;87.70
612;DHT22;293;53.888;11.464;2023-04-24T10:58:09;19.50;88.40
612;DHT22;293;53.888;11.464;2023-04-24T11:00:37;19.60;87.60
612;DHT22;293;53.888;11.464;2023-04-24T11:03:04;19.70;88.20
612;DHT22;293;53.888;11.464;2023-04-24T11:06:01;19.80;87.40
612;DHT22;293;53.888;11.464;2023-04-24T11:08:30;19.90;88.30
612;DHT22;293;53.888;11.464;2023-04-24T11:11:00;19.80;87.10
612;DHT22;293;53.888;11.464;2023-04-24T11:14:01;19.60;87.20
612;DHT22;293;53.888;11.464;2023-04-24T11:16:31;19.20;87.30
612;DHT22;293;53.888;11.464;2023-04-24T11:19:04;19.20;88.70
612;DHT22;293;53.888;11.464;2023-04-24T11:21:32;19.10;88.90
612;DHT22;293;53.888;11.464;2023-04-24T11:24:26;18.90;88.60
612;DHT22;293;53.888;11.464;2023-04-24T11:26:54;18.70;89.40
612;DHT22;293;53.888;11.464;2023-04-24T11:29:22;18.20;89.60
612;DHT22;293;53.888;11.464;2023-04-24T11:31:51;18.20;90.00
612;DHT22;293;53.888;11.464;2023-04-24T11:34:18;18.00;90.10
612;DHT22;293;53.888;11.464;2023-04-24T11:36:45;17.80;90.30
612;DHT22;293;53.888;11.464;2023-04-24T11:39:13;17.50;91.00
612;DHT22;293;53.888;11.464;2023-04-24T11:41:41;17.30;91.30
612;DHT22;293;53.888;11.464;2023-04-24T11:44:08;17.30;91.60
612;DHT22;293;53.888;11.464;2023-04-24T11:46:36;17.30;91.50
612;DHT22;293;53.888;11.464;2023-04-24T11:49:06;17.20;91.80
612;DHT22;293;53.888;11.464;2023-04-24T11:51:34;17.10;91.90
612;DHT22;293;53.888;11.464;2023-04-24T11:54:01;17.10;92.00
612;DHT22;293;53.888;11.464;2023-04-24T11:56:28;17.10;92.10
612;DHT22;293;53.888;11.464;2023-04-24T11:58:55;17.30;92.60
612;DHT22;293;53.888;11.464;2023-04-24T12:01:22;17.30;92.80
612;DHT22;293;53.888;11.464;2023-04-24T12:03:49;17.40;92.50
612;DHT22;293;53.888;11.464;2023-04-24T12:06:19;17.40;92.60
612;DHT22;293;53.888;11.464;2023-04-24T12:08:46;17.40;92.80
612;DHT22;293;53.888;11.464;2023-04-24T12:11:16;17.40;92.90
612;DHT22;293;53.888;11.464;2023-04-24T12:13:44;17.50;93.20
612;DHT22;293;53.888;11.464;2023-04-24T12:16:12;17.60;93.30
612;DHT22;293;53.888;11.464;2023-04-24T12:18:43;18.20;93.50
612;DHT22;293;53.888;11.464;2023-04-24T12:21:19;17.70;92.60
612;DHT22;293;53.888;11.464;2023-04-24T12:23:47;17.70;92.10
612;DHT22;293;53.888;11.464;2023-04-24T12:26:16;17.80;92.10
612;DHT22;293;53.888;11.464;2023-04-24T12:28:47;18.00;92.10
612;DHT22;293;53.888;11.464;2023-04-24T12:31:15;18.20;91.70
612;DHT22;293;53.888;11.464;2023-04-24T12:33:42;18.40;91.20
612;DHT22;293;53.888;11.464;2023-04-24T12:36:10;18.60;91.20
612;DHT22;293;53.888;11.464;2023-04-24T12:38:42;18.70;89.80
612;DHT22;293;53.888;11.464;2023-04-24T12:41:13;18.70;90.20
612;DHT22;293;53.888;11.464;2023-04-24T12:43:51;18.70;90.30
612;DHT22;293;53.888;11.464;2023-04-24T12:46:18;18.70;90.30
612;DHT22;293;53.888;11.464;2023-04-24T12:48:45;18.80;89.50
612;DHT22;293;53.888;11.464;2023-04-24T12:51:12;18.80;89.60
612;DHT22;293;53.888;11.464;2023-04-24T12:53:40;18.70;90.10
612;DHT22;293;53.888;11.464;2023-04-24T12:56:07;18.60;89.50
612;DHT22;293;53.888;11.464;2023-04-24T12:58:33;18.60;89.40
612;DHT22;293;53.888;11.464;2023-04-24T13:01:00;18.60;90.10
612;DHT22;293;53.888;11.464;2023-04-24T13:03:27;18.70;90.10
612;DHT22;293;53.888;11.464;2023-04-24T13:05:54;18.70;89.40
612;DHT22;293;53.888;11.464;2023-04-24T13:08:21;18.70;89.90
612;DHT22;293;53.888;11.464;2023-04-24T13:10:49;18.70;90.00
612;DHT22;293;53.888;11.464;2023-04-24T13:13:17;18.80;89.10
612;DHT22;293;53.888;11.464;2023-04-24T13:15:44;18.80;89.10
612;DHT22;293;53.888;11.464;2023-04-24T13:18:11;18.80;88.70
612;DHT22;293;53.888;11.464;2023-04-24T13:20:38;19.00;89.20
612;DHT22;293;53.888;11.464;2023-04-24T13:23:06;19.10;89.20
612;DHT22;293;53.888;11.464;2023-04-24T13:25:35;19.20;89.30
612;DHT22;293;53.888;11.464;2023-04-24T13:28:04;19.10;85.00
612;DHT22;293;53.888;11.464;2023-04-24T13:30:31;19.10;85.60
612;DHT22;293;53.888;11.464;2023-04-24T13:32:58;19.00;83.40
612;DHT22;293;53.888;11.464;2023-04-24T13:35:25;18.80;82.50
612;DHT22;293;53.888;11.464;2023-04-24T13:37:52;18.90;83.00
612;DHT22;293;53.888;11.464;2023-04-24T13:40:19;18.90;81.80
612;DHT22;293;53.888;11.464;2023-04-24T13:42:45;18.90;82.40
612;DHT22;293;53.888;11.464;2023-04-24T13:45:14;19.00;82.90
612;DHT22;293;53.888;11.464;2023-04-24T13:47:41;18.90;83.50
612;DHT22;293;53.888;11.464;2023-04-24T13:50:08;18.60;83.40
612;DHT22;293;53.888;11.464;2023-04-24T13:52:35;18.50;82.90
612;DHT22;293;53.888;11.464;2023-04-24T13:55:02;18.30;82.20
612;DHT22;293;53.888;11.464;2023-04-24T13:57:29;18.20;82.90
612;DHT22;293;53.888;11.464;2023-04-24T13:59:57;18.30;82.30
612;DHT22;293;53.888;11.464;2023-04-24T14:02:28;17.90;81.40
612;DHT22;293;53.888;11.464;2023-04-24T14:04:55;17.90;82.90
612;DHT22;293;53.888;11.464;2023-04-24T14:07:21;17.80;81.70
612;DHT22;293;53.888;11.464;2023-04-24T14:09:48;17.70;83.10
612;DHT22;293;53.888;11.464;2023-04-24T14:12:16;17.60;82.10
612;DHT22;293;53.888;11.464;2023-04-24T14:14:45;17.60;82.00
612;DHT22;293;53.888;11.464;2023-04-24T14:17:13;17.40;83.00
612;DHT22;293;53.888;11.464;2023-04-24T14:19:41;17.40;83.50
612;DHT22;293;53.888;11.464;2023-04-24T14:22:09;17.30;81.10
612;DHT22;293;53.888;11.464;2023-04-24T14:24:36;17.20;80.90
612;DHT22;293;53.888;11.464;2023-04-24T14:27:03;17.10;81.20
612;DHT22;293;53.888;11.464;2023-04-24T14:29:29;17.10;80.60
612;DHT22;293;53.888;11.464;2023-04-24T14:31:56;17.10;81.20
612;DHT22;293;53.888;11.464;2023-04-24T14:34:23;17.10;82.00
612;DHT22;293;53.888;11.464;2023-04-24T14:36:52;17.20;82.90
612;DHT22;293;53.888;11.464;2023-04-24T14:39:19;15.20;81.10
612;DHT22;293;53.888;11.464;2023-04-24T14:41:46;17.40;84.60
612;DHT22;293;53.888;11.464;2023-04-24T14:44:13;17.50;83.60
612;DHT22;293;53.888;11.464;2023-04-24T14:46:40;17.40;83.10
612;DHT22;293;53.888;11.464;2023-04-24T14:49:08;17.30;83.90
612;DHT22;293;53.888;11.464;2023-04-24T14:51:35;17.20;82.40
612;DHT22;293;53.888;11.464;2023-04-24T14:54:03;17.10;83.40
612;DHT22;293;53.888;11.464;2023-04-24T14:56:30;17.00;83.90
612;DHT22;293;53.888;11.464;2023-04-24T14:58:57;17.00;84.20
612;DHT22;293;53.888;11.464;2023-04-24T15:01:24;17.00;84.30
612;DHT22;293;53.888;11.464;2023-04-24T15:03:51;17.00;86.00
612;DHT22;293;53.888;11.464;2023-04-24T15:06:18;17.00;85.50
612;DHT22;293;53.888;11.464;2023-04-24T15:08:45;16.90;86.70
612;DHT22;293;53.888;11.464;2023-04-24T15:11:13;16.90;86.20
612;DHT22;293;53.888;11.464;2023-04-24T15:13:40;16.90;85.70
612;DHT22;293;53.888;11.464;2023-04-24T15:16:07;16.90;84.90
612;DHT22;293;53.888;11.464;2023-04-24T15:18:34;16.80;86.10
612;DHT22;293;53.888;11.464;2023-04-24T15:21:01;16.80;86.00
612;DHT22;293;53.888;11.464;2023-04-24T15:23:28;16.70;86.50
612;DHT22;293;53.888;11.464;2023-04-24T15:25:55;16.60;86.70
612;DHT22;293;53.888;11.464;2023-04-24T15:28:24;16.70;86.80
612;DHT22;293;53.888;11.464;2023-04-24T15:30:51;16.60;87.10
612;DHT22;293;53.888;11.464;2023-04-24T15:33:18;16.40;88.10
612;DHT22;293;53.888;11.464;2023-04-24T15:35:45;16.20;87.80
612;DHT22;293;53.888;11.464;2023-04-24T15:38:12;16.20;88.60
612;DHT22;293;53.888;11.464;2023-04-24T15:40:39;16.00;89.10
612;DHT22;293;53.888;11.464;2023-04-24T15:43:06;15.80;89.30
612;DHT22;293;53.888;11.464;2023-04-24T15:45:34;15.80;90.20
612;DHT22;293;53.888;11.464;2023-04-24T15:48:01;15.70;91.00
612;DHT22;293;53.888;11.464;2023-04-24T15:50:28;15.80;90.00
612;DHT22;293;53.888;11.464;2023-04-24T15:55:22;15.70;90.40
612;DHT22;293;53.888;11.464;2023-04-24T15:57:49;15.60;90.90
612;DHT22;293;53.888;11.464;2023-04-24T16:00:17;15.60;90.90
612;DHT22;293;53.888;11.464;2023-04-24T16:02:45;15.70;91.40
612;DHT22;293;53.888;11.464;2023-04-24T16:05:13;15.70;91.30
612;DHT22;293;53.888;11.464;2023-04-24T16:07:40;15.70;90.90
612;DHT22;293;53.888;11.464;2023-04-24T16:10:07;15.70;91.20
612;DHT22;293;53.888;11.464;2023-04-24T16:12:34;15.80;91.50
612;DHT22;293;53.888;11.464;2023-04-24T16:15:02;15.80;91.40
612;DHT22;293;53.888;11.464;2023-04-24T16:17:29;15.80;91.50
612;DHT22;293;53.888;11.464;2023-04-24T16:19:57;15.80;91.00
612;DHT22;293;53.888;11.464;2023-04-24T16:22:24;15.80;91.30